Time,TemperatureF,DewpointF,PressureIn,WindDirection,WindDirectionDegrees,WindSpeedMPH,WindSpeedGustMPH,Humidity,HourlyPrecipIn,Conditions,Clouds,dailyrainin,SoftwareType,DateUTC
2013-03-14 00:02:00,51.1,33.6,30.36,SE,139,1.0,3.0,51,0.00,,,0.00,meteohub,2013-03-14 05:02:00,
2013-03-14 00:07:00,51.1,33.6,30.36,SE,139,0.0,3.0,51,0.00,,,0.00,meteohub,2013-03-14 05:07:00,
2013-03-14 00:12:00,51.1,33.6,30.35,SE,139,0.0,3.0,51,0.00,,,0.00,meteohub,2013-03-14 05:12:00,
2013-03-14 00:17:00,50.9,33.4,30.35,SE,139,0.0,3.0,51,0.00,,,0.00,meteohub,2013-03-14 05:17:00,
2013-03-14 00:27:00,50.7,33.3,30.35,SE,139,0.0,2.0,51,0.00,,,0.00,meteohub,2013-03-14 05:27:00,
2013-03-14 00:37:00,50.0,34.9,30.35,ENE,71,3.0,3.0,56,0.00,,,0.00,meteohub,2013-03-14 05:37:00,
2013-03-14 00:42:00,49.5,34.3,30.35,NNE,27,0.0,2.0,56,0.00,,,0.00,meteohub,2013-03-14 05:42:00,
2013-03-14 00:47:00,48.9,34.9,30.35,NE,38,1.0,3.0,58,0.00,,,0.00,meteohub,2013-03-14 05:47:00,
2013-03-14 00:57:00,48.2,33.6,30.35,NE,39,0.0,3.0,57,0.00,,,0.00,meteohub,2013-03-14 05:57:00,
2013-03-14 01:02:00,48.0,33.1,30.35,NE,39,0.0,2.0,56,0.00,,,0.00,meteohub,2013-03-14 06:02:00,
2013-03-14 01:07:00,47.8,33.3,30.35,NE,39,0.0,2.0,57,0.00,,,0.00,meteohub,2013-03-14 06:07:00,
2013-03-14 01:17:00,47.5,33.4,30.35,NE,39,0.0,0.0,58,0.00,,,0.00,meteohub,2013-03-14 06:17:00,
2013-03-14 01:22:00,47.5,33.1,30.35,NE,39,0.0,1.0,57,0.00,,,0.00,meteohub,2013-03-14 06:22:00,
2013-03-14 01:27:00,47.1,33.4,30.35,NE,39,0.0,1.0,59,0.00,,,0.00,meteohub,2013-03-14 06:27:00,
2013-03-14 01:32:00,47.1,33.4,30.35,NE,39,0.0,1.0,59,0.00,,,0.00,meteohub,2013-03-14 06:32:00,
2013-03-14 01:37:00,46.9,32.9,30.35,East,97,0.0,1.0,58,0.00,,,0.00,meteohub,2013-03-14 06:37:00,
2013-03-14 01:42:00,46.9,32.9,30.35,ESE,114,1.0,2.0,58,0.00,,,0.00,meteohub,2013-03-14 06:42:00,
2013-03-14 01:47:00,46.9,32.9,30.35,SE,140,2.0,2.0,58,0.00,,,0.00,meteohub,2013-03-14 06:47:00,
2013-03-14 01:52:00,47.3,32.9,30.35,SE,140,0.0,3.0,57,0.00,,,0.00,meteohub,2013-03-14 06:52:00,
2013-03-14 01:57:00,47.5,33.1,30.35,SE,140,0.0,3.0,57,0.00,,,0.00,meteohub,2013-03-14 06:57:00,
2013-03-14 02:02:00,47.5,33.1,30.35,SE,140,1.0,3.0,57,0.00,,,0.00,meteohub,2013-03-14 07:02:00,
2013-03-14 02:12:00,47.1,33.1,30.35,SE,140,1.0,1.0,58,0.00,,,0.00,meteohub,2013-03-14 07:12:00,
2013-03-14 02:17:00,46.9,32.9,30.35,SE,140,1.0,1.0,58,0.00,,,0.00,meteohub,2013-03-14 07:17:00,
2013-03-14 02:27:00,46.8,33.3,30.35,SE,140,1.0,2.0,59,0.00,,,0.00,meteohub,2013-03-14 07:27:00,
2013-03-14 02:32:00,46.8,33.3,30.35,SE,140,0.0,2.0,59,0.00,,,0.00,meteohub,2013-03-14 07:32:00,
2013-03-14 02:42:00,46.8,32.7,30.35,SE,134,2.0,3.0,58,0.00,,,0.00,meteohub,2013-03-14 07:42:00,
2013-03-14 02:52:00,47.7,33.3,30.35,ESE,108,1.0,4.0,57,0.00,,,0.00,meteohub,2013-03-14 07:52:00,
2013-03-14 02:57:00,48.0,33.1,30.35,ESE,119,2.0,4.0,56,0.00,,,0.00,meteohub,2013-03-14 07:57:00,
2013-03-14 03:02:00,48.2,33.3,30.35,ESE,122,2.0,5.0,56,0.00,,,0.00,meteohub,2013-03-14 08:02:00,
2013-03-14 03:07:00,48.4,32.9,30.35,SE,132,3.0,5.0,55,0.00,,,0.00,meteohub,2013-03-14 08:07:00,
2013-03-14 03:12:00,48.4,33.4,30.35,South,171,0.0,5.0,56,0.00,,,0.00,meteohub,2013-03-14 08:12:00,
2013-03-14 03:17:00,48.4,33.4,30.35,SSE,157,0.0,4.0,56,0.00,,,0.00,meteohub,2013-03-14 08:17:00,
2013-03-14 03:22:00,48.2,33.3,30.35,SSE,157,2.0,4.0,56,0.00,,,0.00,meteohub,2013-03-14 08:22:00,
2013-03-14 03:32:00,47.7,33.3,30.35,SSE,157,1.0,3.0,57,0.00,,,0.00,meteohub,2013-03-14 08:32:00,
2013-03-14 03:37:00,47.7,33.3,30.35,SSW,199,0.0,3.0,57,0.00,,,0.00,meteohub,2013-03-14 08:37:00,
2013-03-14 03:47:00,47.3,33.3,30.35,South,186,2.0,3.0,58,0.00,,,0.00,meteohub,2013-03-14 08:47:00,
2013-03-14 03:57:00,47.1,33.4,30.34,SSE,168,0.0,3.0,59,0.00,,,0.00,meteohub,2013-03-14 08:57:00,
2013-03-14 04:07:00,46.9,33.4,30.34,SSE,155,2.0,3.0,59,0.00,,,0.00,meteohub,2013-03-14 09:07:00,
2013-03-14 04:12:00,46.9,33.4,30.34,SSE,155,1.0,3.0,59,0.00,,,0.00,meteohub,2013-03-14 09:12:00,
2013-03-14 04:22:00,46.8,33.3,30.34,South,178,0.0,3.0,59,0.00,,,0.00,meteohub,2013-03-14 09:22:00,
2013-03-14 04:27:00,46.8,33.3,30.34,SSE,154,0.0,2.0,59,0.00,,,0.00,meteohub,2013-03-14 09:27:00,
2013-03-14 04:37:00,46.8,33.3,30.34,SSE,147,0.0,3.0,59,0.00,,,0.00,meteohub,2013-03-14 09:37:00,
2013-03-14 04:42:00,46.6,33.1,30.34,South,182,1.0,3.0,59,0.00,,,0.00,meteohub,2013-03-14 09:42:00,
2013-03-14 04:47:00,46.6,33.4,30.34,South,182,1.0,3.0,60,0.00,,,0.00,meteohub,2013-03-14 09:47:00,
2013-03-14 04:52:00,46.6,33.8,30.34,South,182,1.0,5.0,61,0.00,,,0.00,meteohub,2013-03-14 09:52:00,
2013-03-14 04:57:00,46.4,33.6,30.34,South,182,0.0,5.0,61,0.00,,,0.00,meteohub,2013-03-14 09:57:00,
2013-03-14 05:02:00,46.2,33.4,30.34,South,182,2.0,3.0,61,0.00,,,0.00,meteohub,2013-03-14 10:02:00,
2013-03-14 05:12:00,46.4,33.6,30.33,South,175,2.0,4.0,61,0.00,,,0.00,meteohub,2013-03-14 10:12:00,
2013-03-14 05:22:00,46.6,33.4,30.34,South,184,2.0,4.0,60,0.00,,,0.00,meteohub,2013-03-14 10:22:00,
2013-03-14 05:27:00,46.6,33.8,30.34,South,191,2.0,4.0,61,0.00,,,0.00,meteohub,2013-03-14 10:27:00,
2013-03-14 05:32:00,46.6,33.8,30.34,SSE,159,1.0,5.0,61,0.00,,,0.00,meteohub,2013-03-14 10:32:00,
2013-03-14 05:42:00,46.6,33.8,30.34,SSW,193,2.0,5.0,61,0.00,,,0.00,meteohub,2013-03-14 10:42:00,
2013-03-14 05:52:00,46.6,33.8,30.34,South,178,0.0,5.0,61,0.00,,,0.00,meteohub,2013-03-14 10:52:00,
2013-03-14 05:57:00,46.6,33.8,30.33,South,178,2.0,4.0,61,0.00,,,0.00,meteohub,2013-03-14 10:57:00,
2013-03-14 06:02:00,46.4,33.6,30.33,SSE,165,2.0,3.0,61,0.00,,,0.00,meteohub,2013-03-14 11:02:00,
2013-03-14 06:07:00,46.4,33.6,30.34,SSE,156,1.0,3.0,61,0.00,,,0.00,meteohub,2013-03-14 11:07:00,
2013-03-14 06:12:00,46.2,34.0,30.34,SSE,159,1.0,3.0,62,0.00,,,0.00,meteohub,2013-03-14 11:12:00,
2013-03-14 06:17:00,46.2,34.3,30.34,SSE,162,2.0,3.0,63,0.00,,,0.00,meteohub,2013-03-14 11:17:00,
2013-03-14 06:22:00,46.0,33.8,30.34,SSE,162,1.0,2.0,62,0.00,,,0.00,meteohub,2013-03-14 11:22:00,
2013-03-14 06:32:00,45.9,34.3,30.34,SSE,161,1.0,4.0,64,0.00,,,0.00,meteohub,2013-03-14 11:32:00,
2013-03-14 06:37:00,45.9,34.3,30.34,SSE,156,1.0,4.0,64,0.00,,,0.00,meteohub,2013-03-14 11:37:00,
2013-03-14 06:42:00,45.7,35.1,30.34,SSE,156,1.0,4.0,66,0.00,,,0.00,meteohub,2013-03-14 11:42:00,
2013-03-14 06:52:00,45.1,34.2,30.34,South,188,0.0,3.0,65,0.00,,,0.00,meteohub,2013-03-14 11:52:00,
2013-03-14 06:57:00,45.0,34.0,30.35,SSE,165,1.0,4.0,65,0.00,,,0.00,meteohub,2013-03-14 11:57:00,
2013-03-14 07:02:00,45.1,34.2,30.34,South,180,2.0,4.0,65,0.00,,,0.00,meteohub,2013-03-14 12:02:00,
2013-03-14 07:07:00,45.1,34.2,30.35,South,180,1.0,4.0,65,0.00,,,0.00,meteohub,2013-03-14 12:07:00,
2013-03-14 07:12:00,45.1,34.2,30.35,SSE,161,1.0,4.0,65,0.00,,,0.00,meteohub,2013-03-14 12:12:00,
2013-03-14 07:17:00,45.1,34.2,30.35,South,180,1.0,4.0,65,0.00,,,0.00,meteohub,2013-03-14 12:17:00,
2013-03-14 07:27:00,45.1,34.2,30.35,South,179,1.0,2.0,65,0.00,,,0.00,meteohub,2013-03-14 12:27:00,
2013-03-14 07:32:00,45.1,34.2,30.35,South,179,0.0,3.0,65,0.00,,,0.00,meteohub,2013-03-14 12:32:00,
2013-03-14 07:37:00,45.1,34.2,30.35,South,180,1.0,3.0,65,0.00,,,0.00,meteohub,2013-03-14 12:37:00,
2013-03-14 07:42:00,45.0,34.3,30.35,South,186,1.0,3.0,66,0.00,,,0.00,meteohub,2013-03-14 12:42:00,
2013-03-14 07:47:00,45.0,34.3,30.36,South,191,0.0,3.0,66,0.00,,,0.00,meteohub,2013-03-14 12:47:00,
2013-03-14 07:52:00,45.0,34.3,30.36,South,170,0.0,3.0,66,0.00,,,0.00,meteohub,2013-03-14 12:52:00,
2013-03-14 07:57:00,45.0,34.3,30.37,South,171,2.0,3.0,66,0.00,,,0.00,meteohub,2013-03-14 12:57:00,
2013-03-14 08:02:00,45.0,34.3,30.36,South,170,2.0,3.0,66,0.00,,,0.00,meteohub,2013-03-14 13:02:00,
2013-03-14 08:07:00,45.1,34.5,30.37,South,170,0.0,2.0,66,0.00,,,0.00,meteohub,2013-03-14 13:07:00,
2013-03-14 08:17:00,45.3,35.1,30.37,South,169,0.0,4.0,67,0.00,,,0.00,meteohub,2013-03-14 13:17:00,
2013-03-14 08:22:00,45.9,35.6,30.37,SSE,167,2.0,4.0,67,0.00,,,0.00,meteohub,2013-03-14 13:22:00,
2013-03-14 08:32:00,47.5,36.3,30.38,SSE,155,3.0,4.0,65,0.00,,,0.00,meteohub,2013-03-14 13:32:00,
2013-03-14 08:37:00,48.7,37.0,30.38,SE,146,0.0,5.0,64,0.00,,,0.00,meteohub,2013-03-14 13:37:00,
2013-03-14 08:42:00,49.6,37.2,30.38,South,178,2.0,5.0,62,0.00,,,0.00,meteohub,2013-03-14 13:42:00,
2013-03-14 08:47:00,50.7,38.1,30.38,SSE,157,1.0,5.0,62,0.00,,,0.00,meteohub,2013-03-14 13:47:00,
2013-03-14 08:52:00,51.6,38.7,30.38,South,170,2.0,4.0,61,0.00,,,0.00,meteohub,2013-03-14 13:52:00,
2013-03-14 09:02:00,53.1,39.6,30.38,South,186,3.0,4.0,60,0.00,,,0.00,meteohub,2013-03-14 14:02:00,
2013-03-14 09:12:00,54.5,40.5,30.38,South,172,2.0,5.0,59,0.00,,,0.00,meteohub,2013-03-14 14:12:00,
2013-03-14 09:17:00,55.4,40.8,30.38,South,190,3.0,5.0,58,0.00,,,0.00,meteohub,2013-03-14 14:17:00,
2013-03-14 09:22:00,56.3,41.2,30.38,SSE,159,2.0,5.0,57,0.00,,,0.00,meteohub,2013-03-14 14:22:00,
2013-03-14 09:27:00,57.4,42.3,30.38,SSW,194,0.0,5.0,57,0.00,,,0.00,meteohub,2013-03-14 14:27:00,
2013-03-14 09:32:00,58.6,41.5,30.38,South,169,1.0,5.0,53,0.00,,,0.00,meteohub,2013-03-14 14:32:00,
2013-03-14 09:37:00,59.9,42.3,30.38,South,178,3.0,5.0,52,0.00,,,0.00,meteohub,2013-03-14 14:37:00,
2013-03-14 09:42:00,61.0,42.8,30.38,SE,142,3.0,5.0,51,0.00,,,0.00,meteohub,2013-03-14 14:42:00,
2013-03-14 09:47:00,62.2,42.8,30.38,SSE,150,2.0,5.0,49,0.00,,,0.00,meteohub,2013-03-14 14:47:00,
2013-03-14 09:57:00,63.9,42.6,30.38,SW,227,4.0,5.0,46,0.00,,,0.00,meteohub,2013-03-14 14:57:00,
2013-03-14 10:02:00,64.8,42.3,30.38,WSW,243,3.0,6.0,44,0.00,,,0.00,meteohub,2013-03-14 15:02:00,
2013-03-14 10:07:00,65.5,41.7,30.38,SW,215,4.0,7.0,42,0.00,,,0.00,meteohub,2013-03-14 15:07:00,
2013-03-14 10:12:00,65.5,41.7,30.38,SW,215,2.0,10.0,42,0.00,,,0.00,meteohub,2013-03-14 15:12:00,
2013-03-14 10:17:00,65.7,41.9,30.38,SSW,213,5.0,10.0,42,0.00,,,0.00,meteohub,2013-03-14 15:17:00,
2013-03-14 10:22:00,65.7,40.6,30.38,South,175,2.0,10.0,40,0.00,,,0.00,meteohub,2013-03-14 15:22:00,
2013-03-14 10:32:00,66.2,41.7,30.38,SSE,153,4.0,11.0,41,0.00,,,0.00,meteohub,2013-03-14 15:32:00,
2013-03-14 10:37:00,66.7,41.7,30.38,SSW,198,7.0,11.0,40,0.00,,,0.00,meteohub,2013-03-14 15:37:00,
2013-03-14 10:42:00,67.3,42.1,30.37,SSW,202,2.0,7.0,40,0.00,,,0.00,meteohub,2013-03-14 15:42:00,
2013-03-14 10:47:00,67.6,41.7,30.37,South,190,3.0,12.0,39,0.00,,,0.00,meteohub,2013-03-14 15:47:00,
2013-03-14 10:52:00,68.2,41.0,30.37,SSW,194,7.0,12.0,37,0.00,,,0.00,meteohub,2013-03-14 15:52:00,
2013-03-14 10:57:00,68.4,41.7,30.37,South,184,7.0,13.0,38,0.00,,,0.00,meteohub,2013-03-14 15:57:00,
2013-03-14 11:02:00,68.7,41.4,30.37,WSW,254,4.0,13.0,37,0.00,,,0.00,meteohub,2013-03-14 16:02:00,
2013-03-14 11:07:00,69.3,41.2,30.36,South,175,5.0,13.0,36,0.00,,,0.00,meteohub,2013-03-14 16:07:00,
2013-03-14 11:12:00,69.4,39.9,30.37,SSW,209,6.0,11.0,34,0.00,,,0.00,meteohub,2013-03-14 16:12:00,
2013-03-14 11:17:00,69.4,41.4,30.37,SW,222,5.0,15.0,36,0.00,,,0.00,meteohub,2013-03-14 16:17:00,
2013-03-14 11:22:00,69.6,39.9,30.36,SE,139,6.0,15.0,34,0.00,,,0.00,meteohub,2013-03-14 16:22:00,
2013-03-14 11:27:00,69.8,40.1,30.36,SE,134,4.0,15.0,34,0.00,,,0.00,meteohub,2013-03-14 16:27:00,
2013-03-14 11:32:00,69.8,40.1,30.36,SSE,159,4.0,13.0,34,0.00,,,0.00,meteohub,2013-03-14 16:32:00,
2013-03-14 11:37:00,70.3,42.8,30.36,SW,231,4.0,13.0,37,0.00,,,0.00,meteohub,2013-03-14 16:37:00,
2013-03-14 11:42:00,70.9,41.2,30.36,SSW,193,0.0,13.0,34,0.00,,,0.00,meteohub,2013-03-14 16:42:00,
2013-03-14 11:47:00,71.4,42.3,30.36,SW,234,5.0,9.0,35,0.00,,,0.00,meteohub,2013-03-14 16:47:00,
2013-03-14 11:52:00,72.0,42.1,30.36,NNW,341,7.0,9.0,34,0.00,,,0.00,meteohub,2013-03-14 16:52:00,
2013-03-14 11:57:00,72.1,43.0,30.36,SSW,211,7.0,12.0,35,0.00,,,0.00,meteohub,2013-03-14 16:57:00,
2013-03-14 12:02:00,72.7,41.9,30.36,SW,216,5.0,12.0,33,0.00,,,0.00,meteohub,2013-03-14 17:02:00,
2013-03-14 12:07:00,72.3,40.8,30.35,SSW,200,6.0,14.0,32,0.00,,,0.00,meteohub,2013-03-14 17:07:00,
2013-03-14 12:17:00,72.7,41.9,30.36,SSW,196,7.0,14.0,33,0.00,,,0.00,meteohub,2013-03-14 17:17:00,
2013-03-14 12:22:00,72.9,42.1,30.35,South,177,6.0,12.0,33,0.00,,,0.00,meteohub,2013-03-14 17:22:00,
2013-03-14 12:27:00,73.0,42.3,30.35,SSW,199,3.0,10.0,33,0.00,,,0.00,meteohub,2013-03-14 17:27:00,
2013-03-14 12:32:00,73.2,42.4,30.35,SSE,153,4.0,16.0,33,0.00,,,0.00,meteohub,2013-03-14 17:32:00,
2013-03-14 12:42:00,73.6,43.5,30.34,SSE,155,5.0,16.0,34,0.00,,,0.00,meteohub,2013-03-14 17:42:00,
2013-03-14 12:47:00,73.6,43.5,30.34,WSW,240,3.0,12.0,34,0.00,,,0.00,meteohub,2013-03-14 17:47:00,
2013-03-14 12:52:00,73.9,43.0,30.34,SSW,199,8.0,12.0,33,0.00,,,0.00,meteohub,2013-03-14 17:52:00,
2013-03-14 12:57:00,73.9,43.0,30.34,WSW,256,6.0,13.0,33,0.00,,,0.00,meteohub,2013-03-14 17:57:00,
2013-03-14 13:02:00,73.9,43.0,30.33,WSW,250,9.0,13.0,33,0.00,,,0.00,meteohub,2013-03-14 18:02:00,
2013-03-14 13:12:00,73.8,41.2,30.33,SSE,168,2.0,17.0,31,0.00,,,0.00,meteohub,2013-03-14 18:12:00,
2013-03-14 13:22:00,73.9,43.0,30.33,South,175,5.0,12.0,33,0.00,,,0.00,meteohub,2013-03-14 18:22:00,
2013-03-14 13:27:00,74.5,42.6,30.33,SSE,161,6.0,12.0,32,0.00,,,0.00,meteohub,2013-03-14 18:27:00,
2013-03-14 13:32:00,74.7,43.7,30.32,SSE,168,2.0,12.0,33,0.00,,,0.00,meteohub,2013-03-14 18:32:00,
2013-03-14 13:42:00,75.2,42.4,30.32,SSW,207,4.0,12.0,31,0.00,,,0.00,meteohub,2013-03-14 18:42:00,
2013-03-14 13:52:00,75.6,43.7,30.31,South,177,3.0,12.0,32,0.00,,,0.00,meteohub,2013-03-14 18:52:00,
2013-03-14 13:57:00,75.2,43.3,30.31,WSW,242,3.0,12.0,32,0.00,,,0.00,meteohub,2013-03-14 18:57:00,
2013-03-14 14:07:00,75.7,45.3,30.30,SSW,212,6.0,12.0,34,0.00,,,0.00,meteohub,2013-03-14 19:07:00,
2013-03-14 14:12:00,76.3,45.1,30.30,South,191,7.0,12.0,33,0.00,,,0.00,meteohub,2013-03-14 19:12:00,
2013-03-14 14:17:00,76.5,44.4,30.30,SW,219,5.0,12.0,32,0.00,,,0.00,meteohub,2013-03-14 19:17:00,
2013-03-14 14:22:00,76.5,45.1,30.29,West,265,8.0,12.0,33,0.00,,,0.00,meteohub,2013-03-14 19:22:00,
2013-03-14 14:27:00,76.5,45.1,30.29,SSW,205,8.0,12.0,33,0.00,,,0.00,meteohub,2013-03-14 19:27:00,
2013-03-14 14:37:00,76.1,44.1,30.28,SSW,200,6.0,12.0,32,0.00,,,0.00,meteohub,2013-03-14 19:37:00,
2013-03-14 14:47:00,76.5,44.4,30.27,SSW,208,4.0,13.0,32,0.00,,,0.00,meteohub,2013-03-14 19:47:00,
2013-03-14 14:52:00,76.6,44.6,30.27,SSW,206,4.0,12.0,32,0.00,,,0.00,meteohub,2013-03-14 19:52:00,
2013-03-14 15:02:00,76.8,45.5,30.27,SSW,198,5.0,12.0,33,0.00,,,0.00,meteohub,2013-03-14 20:02:00,
2013-03-14 15:07:00,77.2,45.9,30.26,WNW,288,3.0,12.0,33,0.00,,,0.00,meteohub,2013-03-14 20:07:00,
2013-03-14 15:12:00,77.4,45.1,30.26,SSE,164,8.0,12.0,32,0.00,,,0.00,meteohub,2013-03-14 20:12:00,
2013-03-14 15:17:00,77.5,45.3,30.25,South,186,9.0,12.0,32,0.00,,,0.00,meteohub,2013-03-14 20:17:00,
2013-03-14 15:22:00,77.5,44.6,30.25,South,176,7.0,11.0,31,0.00,,,0.00,meteohub,2013-03-14 20:22:00,
2013-03-14 15:27:00,77.5,46.9,30.25,SSW,207,6.0,11.0,34,0.00,,,0.00,meteohub,2013-03-14 20:27:00,
2013-03-14 15:32:00,77.7,44.6,30.25,South,179,3.0,11.0,31,0.00,,,0.00,meteohub,2013-03-14 20:32:00,
2013-03-14 15:37:00,78.1,45.0,30.25,WSW,247,3.0,9.0,31,0.00,,,0.00,meteohub,2013-03-14 20:37:00,
2013-03-14 15:42:00,78.1,45.0,30.25,South,190,2.0,10.0,31,0.00,,,0.00,meteohub,2013-03-14 20:42:00,
2013-03-14 15:52:00,78.1,46.6,30.25,West,277,3.0,11.0,33,0.00,,,0.00,meteohub,2013-03-14 20:52:00,
2013-03-14 15:57:00,78.3,46.8,30.25,WSW,246,0.0,12.0,33,0.00,,,0.00,meteohub,2013-03-14 20:57:00,
2013-03-14 16:02:00,78.4,45.3,30.25,SSW,212,3.0,12.0,31,0.00,,,0.00,meteohub,2013-03-14 21:02:00,
2013-03-14 16:12:00,79.2,46.8,30.24,WSW,257,7.0,8.0,32,0.00,,,0.00,meteohub,2013-03-14 21:12:00,
2013-03-14 16:22:00,79.3,46.0,30.24,SW,228,3.0,8.0,31,0.00,,,0.00,meteohub,2013-03-14 21:22:00,
2013-03-14 16:27:00,79.2,45.1,30.24,SW,229,3.0,8.0,30,0.00,,,0.00,meteohub,2013-03-14 21:27:00,
2013-03-14 16:32:00,79.3,44.2,30.24,SSW,206,1.0,7.0,29,0.00,,,0.00,meteohub,2013-03-14 21:32:00,
2013-03-14 16:37:00,79.5,45.3,30.23,WSW,238,2.0,7.0,30,0.00,,,0.00,meteohub,2013-03-14 21:37:00,
2013-03-14 16:47:00,79.2,45.1,30.23,SW,227,11.0,11.0,30,0.00,,,0.00,meteohub,2013-03-14 21:47:00,
2013-03-14 16:52:00,79.0,45.0,30.23,SW,225,3.0,11.0,30,0.00,,,0.00,meteohub,2013-03-14 21:52:00,
2013-03-14 16:57:00,78.6,44.6,30.23,SSW,208,4.0,11.0,30,0.00,,,0.00,meteohub,2013-03-14 21:57:00,
2013-03-14 17:07:00,78.1,45.0,30.22,SSW,206,9.0,9.0,31,0.00,,,0.00,meteohub,2013-03-14 22:07:00,
2013-03-14 17:12:00,77.5,45.3,30.22,WSW,251,4.0,10.0,32,0.00,,,0.00,meteohub,2013-03-14 22:12:00,
2013-03-14 17:17:00,76.8,44.8,30.22,South,183,3.0,10.0,32,0.00,,,0.00,meteohub,2013-03-14 22:17:00,
2013-03-14 17:22:00,76.5,46.0,30.22,South,190,4.0,12.0,34,0.00,,,0.00,meteohub,2013-03-14 22:22:00,
2013-03-14 17:27:00,76.3,45.1,30.22,WSW,240,1.0,12.0,33,0.00,,,0.00,meteohub,2013-03-14 22:27:00,
2013-03-14 17:37:00,75.7,45.3,30.22,SSW,192,5.0,7.0,34,0.00,,,0.00,meteohub,2013-03-14 22:37:00,
2013-03-14 17:42:00,75.6,45.1,30.22,South,190,1.0,10.0,34,0.00,,,0.00,meteohub,2013-03-14 22:42:00,
2013-03-14 17:47:00,75.4,45.9,30.22,SSE,150,2.0,10.0,35,0.00,,,0.00,meteohub,2013-03-14 22:47:00,
2013-03-14 17:52:00,75.0,45.5,30.22,West,261,7.0,10.0,35,0.00,,,0.00,meteohub,2013-03-14 22:52:00,
2013-03-14 17:57:00,74.8,45.3,30.22,West,267,3.0,8.0,35,0.00,,,0.00,meteohub,2013-03-14 22:57:00,
2013-03-14 18:07:00,74.8,46.0,30.21,South,185,2.0,7.0,36,0.00,,,0.00,meteohub,2013-03-14 23:07:00,
2013-03-14 18:12:00,74.7,45.9,30.22,SW,221,4.0,10.0,36,0.00,,,0.00,meteohub,2013-03-14 23:12:00,
2013-03-14 18:17:00,74.5,45.9,30.21,SSW,194,5.0,10.0,36,0.00,,,0.00,meteohub,2013-03-14 23:17:00,
2013-03-14 18:22:00,74.1,45.5,30.21,South,186,3.0,10.0,36,0.00,,,0.00,meteohub,2013-03-14 23:22:00,
2013-03-14 18:27:00,73.9,46.0,30.21,South,189,1.0,10.0,37,0.00,,,0.00,meteohub,2013-03-14 23:27:00,
2013-03-14 18:32:00,73.8,45.1,30.21,SSW,196,3.0,9.0,36,0.00,,,0.00,meteohub,2013-03-14 23:32:00,
2013-03-14 18:42:00,73.2,45.3,30.21,SW,219,4.0,9.0,37,0.00,,,0.00,meteohub,2013-03-14 23:42:00,
2013-03-14 18:47:00,73.0,45.9,30.21,SSW,206,4.0,9.0,38,0.00,,,0.00,meteohub,2013-03-14 23:47:00,
2013-03-14 18:52:00,72.7,45.7,30.21,South,176,1.0,8.0,38,0.00,,,0.00,meteohub,2013-03-14 23:52:00,
2013-03-14 19:02:00,71.8,45.5,30.21,SW,226,2.0,7.0,39,0.00,,,0.00,meteohub,2013-03-15 00:02:00,
2013-03-14 19:07:00,71.4,45.9,30.20,WSW,240,0.0,7.0,40,0.00,,,0.00,meteohub,2013-03-15 00:07:00,
2013-03-14 19:17:00,70.5,45.7,30.20,SSW,207,0.0,7.0,41,0.00,,,0.00,meteohub,2013-03-15 00:17:00,
2013-03-14 19:22:00,70.2,45.3,30.20,SSW,193,2.0,7.0,41,0.00,,,0.00,meteohub,2013-03-15 00:22:00,
2013-03-14 19:27:00,69.6,45.5,30.20,SSE,167,1.0,4.0,42,0.00,,,0.00,meteohub,2013-03-15 00:27:00,
2013-03-14 19:37:00,68.7,45.3,30.20,SSE,155,1.0,4.0,43,0.00,,,0.00,meteohub,2013-03-15 00:37:00,
2013-03-14 19:42:00,68.4,45.7,30.20,SSE,155,1.0,3.0,44,0.00,,,0.00,meteohub,2013-03-15 00:42:00,
2013-03-14 19:47:00,67.8,45.7,30.20,South,178,0.0,3.0,45,0.00,,,0.00,meteohub,2013-03-15 00:47:00,
2013-03-14 19:52:00,67.3,45.9,30.20,South,191,0.0,2.0,46,0.00,,,0.00,meteohub,2013-03-15 00:52:00,
2013-03-14 20:02:00,66.2,45.3,30.20,South,182,0.0,3.0,47,0.00,,,0.00,meteohub,2013-03-15 01:02:00,
2013-03-14 20:07:00,65.7,45.5,30.20,South,182,0.0,3.0,48,0.00,,,0.00,meteohub,2013-03-15 01:07:00,
2013-03-14 20:12:00,65.3,45.7,30.20,South,182,0.0,2.0,49,0.00,,,0.00,meteohub,2013-03-15 01:12:00,
2013-03-14 20:17:00,64.8,45.7,30.20,South,182,0.0,2.0,50,0.00,,,0.00,meteohub,2013-03-15 01:17:00,
2013-03-14 20:27:00,64.0,46.0,30.20,South,182,0.0,0.0,52,0.00,,,0.00,meteohub,2013-03-15 01:27:00,
2013-03-14 20:32:00,63.7,45.7,30.20,South,182,0.0,2.0,52,0.00,,,0.00,meteohub,2013-03-15 01:32:00,
2013-03-14 20:37:00,63.1,45.1,30.20,South,182,0.0,2.0,52,0.00,,,0.00,meteohub,2013-03-15 01:37:00,
2013-03-14 20:42:00,63.0,45.5,30.20,South,182,0.0,2.0,53,0.00,,,0.00,meteohub,2013-03-15 01:42:00,
2013-03-14 20:52:00,62.2,45.9,30.20,South,182,0.0,2.0,55,0.00,,,0.00,meteohub,2013-03-15 01:52:00,
2013-03-14 20:57:00,61.9,45.5,30.20,South,182,0.0,2.0,55,0.00,,,0.00,meteohub,2013-03-15 01:57:00,
2013-03-14 21:02:00,61.5,46.2,30.20,South,182,0.0,2.0,57,0.00,,,0.00,meteohub,2013-03-15 02:02:00,
2013-03-14 21:07:00,61.3,46.0,30.21,South,182,0.0,1.0,57,0.00,,,0.00,meteohub,2013-03-15 02:07:00,
2013-03-14 21:17:00,60.8,45.9,30.21,SSW,196,0.0,3.0,58,0.00,,,0.00,meteohub,2013-03-15 02:17:00,
2013-03-14 21:22:00,60.6,46.2,30.20,South,180,0.0,3.0,59,0.00,,,0.00,meteohub,2013-03-15 02:22:00,
2013-03-14 21:27:00,60.4,46.0,30.20,South,180,0.0,3.0,59,0.00,,,0.00,meteohub,2013-03-15 02:27:00,
2013-03-14 21:32:00,60.3,46.4,30.20,South,180,0.0,2.0,60,0.00,,,0.00,meteohub,2013-03-15 02:32:00,
2013-03-14 21:42:00,59.7,45.9,30.20,South,180,0.0,1.0,60,0.00,,,0.00,meteohub,2013-03-15 02:42:00,
2013-03-14 21:47:00,59.5,46.0,30.21,South,180,0.0,1.0,61,0.00,,,0.00,meteohub,2013-03-15 02:47:00,
2013-03-14 21:52:00,59.4,45.9,30.21,South,180,0.0,2.0,61,0.00,,,0.00,meteohub,2013-03-15 02:52:00,
2013-03-14 21:57:00,59.2,46.2,30.20,South,180,1.0,2.0,62,0.00,,,0.00,meteohub,2013-03-15 02:57:00,
2013-03-14 22:02:00,59.0,46.4,30.20,South,180,1.0,2.0,63,0.00,,,0.00,meteohub,2013-03-15 03:02:00,
2013-03-14 22:07:00,58.8,46.2,30.20,SSE,165,1.0,3.0,63,0.00,,,0.00,meteohub,2013-03-15 03:07:00,
2013-03-14 22:12:00,58.6,46.6,30.20,SSE,165,0.0,3.0,64,0.00,,,0.00,meteohub,2013-03-15 03:12:00,
2013-03-14 22:22:00,58.3,46.6,30.21,SSE,165,0.0,2.0,65,0.00,,,0.00,meteohub,2013-03-15 03:22:00,
2013-03-14 22:27:00,58.1,46.4,30.21,SSW,193,0.0,2.0,65,0.00,,,0.00,meteohub,2013-03-15 03:27:00,
2013-03-14 22:32:00,58.1,46.4,30.21,SSW,197,2.0,3.0,65,0.00,,,0.00,meteohub,2013-03-15 03:32:00,
2013-03-14 22:37:00,57.9,46.2,30.21,SSW,197,0.0,3.0,65,0.00,,,0.00,meteohub,2013-03-15 03:37:00,
2013-03-14 22:42:00,57.9,46.6,30.21,SSW,197,0.0,3.0,66,0.00,,,0.00,meteohub,2013-03-15 03:42:00,
2013-03-14 22:47:00,57.9,46.6,30.21,SSW,201,0.0,3.0,66,0.00,,,0.00,meteohub,2013-03-15 03:47:00,
2013-03-14 22:52:00,57.7,46.4,30.21,SSW,201,0.0,3.0,66,0.00,,,0.00,meteohub,2013-03-15 03:52:00,
2013-03-14 22:57:00,57.7,46.4,30.21,SSW,201,0.0,3.0,66,0.00,,,0.00,meteohub,2013-03-15 03:57:00,
2013-03-14 23:02:00,57.6,46.2,30.21,SSW,201,0.0,2.0,66,0.00,,,0.00,meteohub,2013-03-15 04:02:00,
2013-03-14 23:07:00,57.4,46.0,30.21,SSW,201,0.0,2.0,66,0.00,,,0.00,meteohub,2013-03-15 04:07:00,
2013-03-14 23:12:00,57.4,46.6,30.21,SSW,201,1.0,2.0,67,0.00,,,0.00,meteohub,2013-03-15 04:12:00,
2013-03-14 23:17:00,57.0,46.2,30.21,SSW,201,0.0,2.0,67,0.00,,,0.00,meteohub,2013-03-15 04:17:00,
2013-03-14 23:27:00,56.7,46.2,30.20,SSW,201,1.0,2.0,68,0.00,,,0.00,meteohub,2013-03-15 04:27:00,
2013-03-14 23:32:00,56.5,46.0,30.20,SSW,201,1.0,2.0,68,0.00,,,0.00,meteohub,2013-03-15 04:32:00,
2013-03-14 23:37:00,56.1,46.0,30.19,SSW,200,0.0,3.0,69,0.00,,,0.00,meteohub,2013-03-15 04:37:00,
2013-03-14 23:42:00,56.1,46.0,30.19,SSW,201,0.0,3.0,69,0.00,,,0.00,meteohub,2013-03-15 04:42:00,
2013-03-14 23:47:00,56.3,46.2,30.19,South,178,3.0,3.0,69,0.00,,,0.00,meteohub,2013-03-15 04:47:00,
2013-03-14 23:52:00,56.7,46.6,30.19,SW,219,2.0,4.0,69,0.00,,,0.00,meteohub,2013-03-15 04:52:00,
2013-03-14 23:57:00,56.8,46.4,30.19,SSW,205,2.0,4.0,68,0.00,,,0.00,meteohub,2013-03-15 04:57:00,